createdAt,value
2018-11-22T00:00:27.289Z,53.17
2018-11-22T00:02:56.975Z,55.83
2018-11-22T00:05:25.250Z,48.53
2018-11-22T00:07:54.445Z,47.57
2018-11-22T00:10:23.236Z,48.30
2018-11-22T00:12:51.450Z,54.00
2018-11-22T00:15:20.460Z,55.87
2018-11-22T00:17:49.003Z,51.40
2018-11-22T00:20:17.277Z,44.43
2018-11-22T00:22:45.540Z,54.47
2018-11-22T00:25:14.766Z,52.93
2018-11-22T00:27:43.100Z,45.80
2018-11-22T00:30:16.901Z,50.00
2018-11-22T00:32:45.179Z,45.20
2018-11-22T00:35:14.399Z,44.63
2018-11-22T00:37:44.106Z,48.63
2018-11-22T00:40:14.329Z,45.27
2018-11-22T00:42:43.059Z,53.23
2018-11-22T00:45:13.410Z,49.43
2018-11-22T00:47:41.637Z,50.03
2018-11-22T00:50:11.807Z,48.93
2018-11-22T00:52:40.203Z,34.80
2018-11-22T00:55:10.244Z,48.23
2018-11-22T00:57:38.688Z,44.90
2018-11-22T01:00:13.756Z,47.33
2018-11-22T01:02:42.330Z,40.63
2018-11-22T01:05:11.216Z,50.27
2018-11-22T01:07:41.542Z,41.40
2018-11-22T01:10:13.299Z,45.60
2018-11-22T12:17:37.957Z,20.77
2018-11-22T12:20:07.449Z,19.70
2018-11-22T12:22:38.553Z,21.33
2018-11-22T12:25:08.667Z,19.70
2018-11-22T12:27:37.160Z,18.40
2018-11-22T12:30:09.270Z,19.60
2018-11-22T12:32:41.887Z,22.33
2018-11-22T12:36:16.458Z,21.50
2018-11-22T12:38:45.533Z,21.63
2018-11-22T12:41:17.267Z,20.33
2018-11-22T12:43:45.666Z,21.33
2018-11-22T12:46:14.080Z,21.57
2018-11-22T12:48:42.940Z,21.73
2018-11-22T12:51:14.848Z,21.83
2018-11-22T12:53:43.252Z,18.50
2018-11-22T12:56:11.820Z,22.50
2018-11-22T12:58:40.172Z,19.00
2018-11-22T13:01:08.632Z,20.57
2018-11-22T13:03:36.996Z,19.07
2018-11-22T13:06:06.605Z,18.83
2018-11-22T13:08:35.004Z,20.00
2018-11-22T13:11:03.526Z,19.90
2018-11-22T13:13:31.889Z,19.20
2018-11-22T13:16:00.417Z,19.93
2018-11-22T13:18:28.813Z,21.33
2018-11-22T13:20:57.330Z,17.13
2018-11-22T13:23:25.766Z,19.50
2018-11-22T13:25:54.184Z,18.63
2018-11-22T13:28:22.573Z,19.33
2018-11-22T13:30:51.270Z,20.37
2018-11-22T13:33:19.693Z,19.17
2018-11-22T13:35:48.218Z,21.30
2018-11-22T13:38:16.675Z,20.60
2018-11-22T13:40:45.177Z,17.33
2018-11-22T13:43:13.565Z,21.67
2018-11-22T13:45:42.136Z,21.63
2018-11-22T13:48:10.524Z,20.87
2018-11-22T13:50:42.120Z,23.60
2018-11-22T13:53:08.728Z,20.63
2018-11-22T13:55:37.238Z,23.27
2018-11-22T13:58:06.187Z,20.50
2018-11-22T14:00:34.988Z,19.67
2018-11-22T14:03:06.018Z,22.00
2018-11-22T14:05:34.961Z,18.20
2018-11-22T14:08:03.432Z,21.80
2018-11-22T14:10:31.952Z,18.90
2018-11-22T14:13:00.421Z,22.40
2018-11-22T14:15:30.268Z,18.30
2018-11-22T14:18:00.949Z,20.67
2018-11-22T14:20:31.702Z,15.80
2018-11-22T14:23:00.080Z,19.80
2018-11-22T14:25:28.817Z,19.07
2018-11-22T14:27:57.251Z,19.10
2018-11-22T14:30:30.435Z,24.43
2018-11-22T14:32:58.800Z,23.63
2018-11-22T14:35:27.449Z,22.57
2018-11-22T14:37:55.952Z,21.70
2018-11-22T14:40:26.585Z,22.00
2018-11-22T14:42:56.698Z,22.57
2018-11-22T14:45:25.526Z,17.03
2018-11-22T14:47:55.175Z,20.73
2018-11-22T14:51:29.999Z,20.60
2018-11-22T14:53:58.403Z,21.73
2018-11-22T14:56:26.926Z,20.63
2018-11-22T14:58:55.316Z,19.93
2018-11-22T15:01:28.592Z,20.93
2018-11-22T15:03:56.926Z,19.70
2018-11-22T15:06:25.508Z,18.83
2018-11-22T15:08:53.959Z,21.77
2018-11-22T15:11:23.424Z,20.33
2018-11-22T15:13:51.892Z,19.67
2018-11-22T15:16:20.437Z,23.53
2018-11-22T15:18:48.941Z,20.57
2018-11-22T15:21:17.467Z,19.90
2018-11-22T15:23:46.067Z,22.90
2018-11-22T15:26:14.756Z,18.73
2018-11-22T15:28:43.364Z,19.63
2018-11-22T15:31:11.726Z,19.00
2018-11-22T15:33:40.668Z,19.53
2018-11-22T15:36:09.094Z,18.37
2018-11-22T15:38:37.544Z,22.87
2018-11-22T15:41:05.997Z,21.60
2018-11-22T15:43:34.645Z,18.33
2018-11-22T15:46:03.049Z,19.60
2018-11-22T15:48:31.629Z,20.43
2018-11-22T15:51:00.036Z,22.30
2018-11-22T15:53:28.585Z,19.60
2018-11-22T15:55:57.001Z,20.03
2018-11-22T15:58:25.501Z,20.83
2018-11-22T16:00:53.897Z,18.57
2018-11-22T16:03:22.404Z,18.73
2018-11-22T16:05:51.754Z,20.33
2018-11-22T16:08:23.756Z,21.20
2018-11-22T16:10:52.164Z,18.07
2018-11-22T16:13:20.676Z,19.00
2018-11-22T16:15:50.887Z,22.33
2018-11-22T16:18:19.611Z,23.37
2018-11-22T16:20:47.996Z,21.30
2018-11-22T16:23:16.688Z,20.23
2018-11-22T16:25:45.056Z,18.93
2018-11-22T16:28:13.521Z,16.50
2018-11-22T16:30:42.726Z,20.77
2018-11-22T16:33:12.182Z,20.23
2018-11-22T16:35:40.545Z,21.93
2018-11-22T16:38:09.078Z,19.90
2018-11-22T16:40:37.472Z,22.33
2018-11-22T16:43:07.054Z,18.57
2018-11-22T16:45:36.479Z,18.33
2018-11-22T16:48:07.734Z,23.53
2018-11-22T16:50:37.231Z,17.67
2018-11-22T16:53:05.692Z,18.20
2018-11-22T16:55:34.105Z,18.50
2018-11-22T16:58:03.185Z,19.77
2018-11-22T17:00:32.681Z,18.30
2018-11-22T17:03:02.803Z,17.80
2018-11-22T17:05:31.436Z,19.23
2018-11-22T17:08:02.704Z,20.50
2018-11-22T17:10:32.692Z,21.13
2018-11-22T17:13:02.475Z,18.40
2018-11-22T17:15:34.529Z,19.50
2018-11-22T17:18:03.766Z,22.03
2018-11-22T17:20:32.679Z,18.90
2018-11-22T17:23:01.810Z,21.83
2018-11-22T17:25:31.522Z,23.10
2018-11-22T17:28:01.748Z,19.80
2018-11-22T17:30:34.465Z,15.90
2018-11-22T17:33:05.329Z,19.43
2018-11-22T17:35:33.913Z,21.00
2018-11-22T17:38:03.860Z,17.97
2018-11-22T17:40:36.748Z,18.17
2018-11-22T17:43:05.892Z,22.13
2018-11-22T17:45:35.837Z,19.37
2018-11-22T17:48:04.916Z,24.77
2018-11-22T17:50:35.448Z,20.60
2018-11-22T17:53:04.476Z,20.63
2018-11-22T17:55:33.584Z,16.70
2018-11-22T17:58:05.864Z,17.50
2018-11-22T18:00:39.868Z,18.00
2018-11-22T18:03:08.444Z,23.10
2018-11-22T18:05:37.217Z,19.30
2018-11-22T18:08:07.250Z,19.47
2018-11-22T18:10:38.283Z,20.50
2018-11-22T18:13:07.358Z,19.67
2018-11-22T18:16:07.845Z,21.70
2018-11-22T18:18:36.352Z,17.77
2018-11-22T18:21:07.597Z,19.57
2018-11-22T18:23:36.662Z,17.83
2018-11-22T18:26:05.593Z,20.87
2018-11-22T18:28:34.116Z,19.50
2018-11-22T18:31:02.720Z,17.00
2018-11-22T18:33:33.511Z,19.50
2018-11-22T18:36:02.032Z,19.47
2018-11-22T18:38:30.556Z,21.87
2018-11-22T18:40:59.009Z,26.80
2018-11-22T18:43:27.847Z,21.80
2018-11-22T18:45:56.355Z,23.20
2018-11-22T18:48:25.008Z,22.47
2018-11-22T18:50:53.549Z,19.33
2018-11-22T18:53:22.108Z,20.67
2018-11-22T18:55:50.464Z,22.90
2018-11-22T18:58:19.057Z,20.10
2018-11-22T19:00:48.358Z,19.57
2018-11-22T19:03:19.339Z,19.87
2018-11-22T19:05:47.751Z,21.23
2018-11-22T19:08:17.103Z,19.27
2018-11-22T19:10:48.107Z,21.07
2018-11-22T19:13:16.764Z,23.43
2018-11-22T19:15:47.298Z,22.43
2018-11-22T19:18:15.991Z,19.47
2018-11-22T19:20:45.061Z,18.47
2018-11-22T19:23:14.336Z,22.63
2018-11-22T19:25:42.866Z,23.83
2018-11-22T19:28:17.885Z,23.93
2018-11-22T19:30:47.636Z,17.70
2018-11-22T19:33:17.562Z,22.50
2018-11-22T19:35:48.809Z,30.40
2018-11-22T19:38:22.101Z,21.33
2018-11-22T19:41:01.474Z,22.13
2018-11-22T19:43:32.449Z,21.90
2018-11-22T19:46:09.710Z,20.20
2018-11-22T19:48:38.330Z,20.27
2018-11-22T19:51:07.407Z,24.23
2018-11-22T19:53:36.067Z,20.17
2018-11-22T19:56:05.491Z,22.97
2018-11-22T19:58:34.293Z,21.87
2018-11-22T20:01:07.585Z,27.43
2018-11-22T20:03:31.796Z,20.47
2018-11-22T20:06:00.644Z,24.73
2018-11-22T20:08:29.109Z,26.73
2018-11-22T20:10:57.600Z,28.70
2018-11-22T20:13:26.171Z,28.10
2018-11-22T20:15:54.828Z,24.73
2018-11-22T20:18:23.958Z,27.30
2018-11-22T20:20:56.064Z,21.63
2018-11-22T20:23:24.789Z,23.00
2018-11-22T20:25:53.744Z,24.20
2018-11-22T20:28:22.190Z,22.87
2018-11-22T20:30:50.770Z,24.63
2018-11-22T20:33:19.295Z,21.63
2018-11-22T20:35:47.930Z,24.90
2018-11-22T20:38:17.269Z,21.93
2018-11-22T20:40:53.342Z,22.23
2018-11-22T20:43:21.034Z,26.30
2018-11-22T20:45:57.439Z,20.67
2018-11-22T20:48:27.944Z,22.73
2018-11-22T20:51:01.288Z,19.93
2018-11-22T20:53:31.878Z,22.17
2018-11-22T20:56:03.031Z,21.07
2018-11-22T20:58:32.558Z,24.83
2018-11-22T21:01:01.734Z,24.07
2018-11-22T21:03:30.518Z,24.40
2018-11-22T21:05:59.715Z,20.50
2018-11-22T21:08:28.454Z,21.67
2018-11-22T21:11:12.657Z,21.03
2018-11-22T21:13:41.197Z,22.73
2018-11-22T21:16:09.788Z,18.87
2018-11-22T21:18:38.436Z,22.70
2018-11-22T21:21:06.933Z,21.00
2018-11-22T21:23:35.516Z,21.27
2018-11-22T21:26:05.671Z,22.07
2018-11-22T21:28:34.068Z,22.43
2018-11-22T21:31:02.629Z,24.63
2018-11-22T21:33:31.012Z,22.07
2018-11-22T21:35:59.577Z,24.77
2018-11-22T21:38:27.934Z,21.27
2018-11-22T21:40:58.333Z,20.30
2018-11-22T21:43:26.697Z,21.50
2018-11-22T21:45:55.282Z,19.10
2018-11-22T21:48:23.650Z,20.87
2018-11-22T21:50:52.094Z,25.93
2018-11-22T21:53:25.286Z,22.20
2018-11-22T21:55:53.751Z,22.67
2018-11-22T21:58:22.442Z,24.40
2018-11-22T22:00:50.925Z,23.47
2018-11-22T22:03:19.262Z,19.07
2018-11-22T22:05:47.716Z,22.57
2018-11-22T22:08:16.136Z,24.90
2018-11-22T22:10:46.695Z,22.63
2018-11-22T22:13:15.063Z,18.60
2018-11-22T22:15:47.568Z,18.90
2018-11-22T22:18:21.129Z,18.77
2018-11-22T22:20:44.391Z,20.33
2018-11-22T22:23:13.496Z,23.23
2018-11-22T22:25:42.327Z,20.67
2018-11-22T22:28:11.241Z,21.33
2018-11-22T22:30:40.593Z,17.30
2018-11-22T22:33:09.345Z,21.60
2018-11-22T22:35:37.720Z,22.63
2018-11-22T22:38:06.284Z,20.50
2018-11-22T22:40:34.754Z,22.87
2018-11-22T22:43:03.220Z,21.30
2018-11-22T22:45:33.143Z,22.40
2018-11-22T22:48:01.739Z,22.20
2018-11-22T22:50:30.816Z,20.70
2018-11-22T22:53:00.210Z,22.50
2018-11-22T22:55:28.968Z,22.07
2018-11-22T22:57:57.594Z,21.63
2018-11-22T23:00:32.155Z,24.43
2018-11-22T23:03:02.021Z,23.67
2018-11-22T23:05:30.981Z,22.87
2018-11-22T23:07:59.365Z,24.30
2018-11-22T23:10:27.839Z,21.90
2018-11-22T23:12:56.956Z,24.50
2018-11-22T23:15:26.523Z,24.53
2018-11-22T23:17:54.905Z,23.83
2018-11-22T23:20:24.659Z,24.23
2018-11-22T23:22:53.248Z,21.00
2018-11-22T23:25:24.004Z,23.20
2018-11-22T23:27:52.403Z,22.40
2018-11-22T23:30:23.078Z,22.43
2018-11-22T23:32:52.731Z,20.43
2018-11-22T23:35:21.284Z,21.37
2018-11-22T23:37:49.961Z,22.53
2018-11-22T23:40:20.798Z,22.03
2018-11-22T23:42:49.216Z,18.07
2018-11-22T23:45:18.993Z,22.83
2018-11-22T23:47:47.756Z,23.80
2018-11-22T23:50:19.643Z,19.67
2018-11-22T23:52:49.336Z,24.17
2018-11-22T23:55:17.753Z,20.97
2018-11-22T23:57:46.256Z,20.80
